createdAt,value
2022-09-10T00:00:39.786Z,50.908112
2022-09-10T00:01:39.832Z,50.908138
2022-09-10T00:02:39.822Z,50.908150
2022-09-10T00:03:39.755Z,50.908104
2022-09-10T00:04:39.809Z,50.908119
2022-09-10T00:05:39.718Z,50.908161
2022-09-10T00:06:40.719Z,50.908184
2022-09-10T00:07:39.716Z,50.908169
2022-09-10T00:08:39.791Z,50.908138
2022-09-10T00:09:39.766Z,50.908138
2022-09-10T00:10:39.687Z,50.908134
2022-09-10T00:11:39.819Z,50.908089
2022-09-10T00:12:39.781Z,50.908131
2022-09-10T00:13:39.683Z,50.908169
2022-09-10T00:14:40.587Z,50.908134
2022-09-10T00:15:39.695Z,50.908146
2022-09-10T00:16:39.641Z,50.908184
2022-09-10T00:17:39.635Z,50.908134
2022-09-10T00:18:39.790Z,50.908138
2022-09-10T00:19:39.620Z,50.908150
2022-09-10T00:20:39.686Z,50.908192
2022-09-10T00:21:39.693Z,50.908131
2022-09-10T00:22:39.598Z,50.908138
2022-09-10T00:23:39.628Z,50.908150
2022-09-10T00:24:39.748Z,50.908165
2022-09-10T00:25:39.603Z,50.908154
2022-09-10T00:26:39.905Z,50.908138
2022-09-10T00:27:39.697Z,50.908142
2022-09-10T00:28:39.751Z,50.908119
2022-09-10T00:29:39.661Z,50.908161
2022-09-10T00:30:39.558Z,50.908180
2022-09-10T00:31:39.577Z,50.908188
2022-09-10T00:32:39.521Z,50.908230
2022-09-10T00:33:39.536Z,50.908188
2022-09-10T00:34:39.514Z,50.908234
2022-09-10T00:35:40.519Z,50.908169
2022-09-10T00:36:39.487Z,50.908207
2022-09-10T00:37:39.493Z,50.908169
2022-09-10T00:38:39.666Z,50.908173
2022-09-10T00:39:39.497Z,50.908161
2022-09-10T00:40:39.486Z,50.908123
2022-09-10T00:41:39.905Z,50.908054
2022-09-10T00:42:39.902Z,50.908035
2022-09-10T00:43:39.467Z,50.908020
2022-09-10T00:44:39.443Z,50.907997
2022-09-10T00:45:39.505Z,50.908066
2022-09-10T00:46:39.422Z,50.908146
2022-09-10T00:47:39.412Z,50.908176
2022-09-10T00:48:39.549Z,50.908146
2022-09-10T00:49:39.434Z,50.908085
2022-09-10T00:50:39.464Z,50.908108
2022-09-10T00:51:39.381Z,50.908081
2022-09-10T00:52:40.046Z,50.908073
2022-09-10T00:53:40.423Z,50.908085
2022-09-10T00:54:39.375Z,50.908096
2022-09-10T00:55:39.405Z,50.908123
2022-09-10T00:56:39.335Z,50.908047
2022-09-10T00:57:39.363Z,50.908104
2022-09-10T00:58:39.488Z,50.908081
2022-09-10T00:59:39.324Z,50.908127
2022-09-10T01:00:39.369Z,50.908058
2022-09-10T01:01:39.373Z,50.908077
2022-09-10T01:02:39.281Z,50.908077
2022-09-10T01:03:39.416Z,50.908070
2022-09-10T01:04:39.298Z,50.908081
2022-09-10T01:05:39.298Z,50.908054
2022-09-10T01:06:39.244Z,50.908058
2022-09-10T01:07:39.280Z,50.908070
2022-09-10T01:08:39.356Z,50.908070
2022-09-10T01:09:39.237Z,50.908073
2022-09-10T01:10:39.287Z,50.908096
2022-09-10T01:11:39.236Z,50.908054
2022-09-10T01:12:39.414Z,50.908070
2022-09-10T01:13:39.199Z,50.908096
2022-09-10T01:14:39.185Z,50.908100
2022-09-10T01:15:39.206Z,50.908104
2022-09-10T01:16:39.171Z,50.908150
2022-09-10T01:17:39.166Z,50.908127
2022-09-10T01:18:39.916Z,50.908115
2022-09-10T01:19:39.731Z,50.908146
2022-09-10T01:20:39.191Z,50.908115
2022-09-10T01:21:39.173Z,50.908123
2022-09-10T01:22:39.151Z,50.908115
2022-09-10T01:23:40.102Z,50.908108
2022-09-10T01:24:39.131Z,50.908115
2022-09-10T01:25:39.120Z,50.908138
2022-09-10T01:26:39.143Z,50.908119
2022-09-10T01:27:39.158Z,50.908123
2022-09-10T01:28:39.196Z,50.908115
2022-09-10T01:29:39.064Z,50.908146
2022-09-10T01:30:39.091Z,50.908142
2022-09-10T01:31:39.109Z,50.908146
2022-09-10T01:32:39.111Z,50.908127
2022-09-10T01:33:39.151Z,50.908154
2022-09-10T01:34:39.024Z,50.908119
2022-09-10T01:35:39.044Z,50.908131
2022-09-10T01:36:39.050Z,50.908165
2022-09-10T01:37:39.006Z,50.908127
2022-09-10T01:38:39.098Z,50.908119
2022-09-10T01:39:39.069Z,50.908138
2022-09-10T01:40:39.175Z,50.908142
2022-09-10T01:41:39.000Z,50.908150
2022-09-10T01:42:39.042Z,50.908142
2022-09-10T01:43:38.982Z,50.908127
2022-09-10T01:44:39.014Z,50.908146
2022-09-10T01:45:39.016Z,50.908131
2022-09-10T01:46:38.941Z,50.908176
2022-09-10T01:47:38.971Z,50.908154
2022-09-10T01:48:39.063Z,50.908142
2022-09-10T01:49:38.906Z,50.908161
2022-09-10T01:50:38.956Z,50.908150
2022-09-10T01:51:38.900Z,50.908157
2022-09-10T01:52:38.894Z,50.908150
2022-09-10T01:53:38.927Z,50.908165
2022-09-10T01:54:38.874Z,50.908138
2022-09-10T01:55:38.929Z,50.908138
2022-09-10T01:56:38.855Z,50.908146
2022-09-10T01:57:38.879Z,50.908150
2022-09-10T01:58:38.972Z,50.908138
2022-09-10T01:59:38.827Z,50.908112
2022-09-10T02:00:38.904Z,50.908150
2022-09-10T02:01:38.814Z,50.908161
2022-09-10T02:02:38.802Z,50.908150
2022-09-10T02:03:38.797Z,50.908134
2022-09-10T02:04:38.787Z,50.908123
2022-09-10T02:05:38.806Z,50.908127
2022-09-10T02:06:38.774Z,50.908142
2022-09-10T02:07:38.758Z,50.908134
2022-09-10T02:08:39.888Z,50.908138
2022-09-10T02:09:38.787Z,50.908127
2022-09-10T02:10:39.614Z,50.908127
2022-09-10T02:11:38.734Z,50.908115
2022-09-10T02:12:38.790Z,50.908115
2022-09-10T02:13:38.726Z,50.908115
2022-09-10T02:14:38.726Z,50.908104
2022-09-10T02:15:38.725Z,50.908100
2022-09-10T02:16:38.769Z,50.908134
2022-09-10T02:17:39.620Z,50.908085
2022-09-10T02:18:38.735Z,50.908089
2022-09-10T02:19:38.673Z,50.908077
2022-09-10T02:20:38.689Z,50.908070
2022-09-10T02:21:39.611Z,50.908092
2022-09-10T02:22:38.671Z,50.908127
2022-09-10T02:23:38.654Z,50.908127
2022-09-10T02:24:38.632Z,50.908165
2022-09-10T02:25:38.680Z,50.908192
2022-09-10T02:26:38.683Z,50.908115
2022-09-10T02:27:38.613Z,50.908131
2022-09-10T02:28:38.689Z,50.908123
2022-09-10T02:29:38.590Z,50.908092
2022-09-10T02:30:38.586Z,50.908051
2022-09-10T02:31:38.682Z,50.908096
2022-09-10T02:32:38.576Z,50.908134
2022-09-10T02:33:38.578Z,50.908146
2022-09-10T02:34:38.554Z,50.908157
2022-09-10T02:35:38.546Z,50.908127
2022-09-10T02:36:38.569Z,50.908146
2022-09-10T02:37:38.596Z,50.908131
2022-09-10T02:38:38.626Z,50.908161
2022-09-10T02:39:38.762Z,50.908142
2022-09-10T02:40:38.507Z,50.908115
2022-09-10T02:41:38.554Z,50.908104
2022-09-10T02:42:38.491Z,50.908142
2022-09-10T02:43:38.483Z,50.908146
2022-09-10T02:44:38.471Z,50.908142
2022-09-10T02:45:39.172Z,50.908127
2022-09-10T02:46:38.463Z,50.908134
2022-09-10T02:47:38.468Z,50.908150
2022-09-10T02:48:38.530Z,50.908138
2022-09-10T02:49:38.442Z,50.908134
2022-09-10T02:50:38.430Z,50.908138
2022-09-10T02:51:38.451Z,50.908134
2022-09-10T02:52:38.413Z,50.908142
2022-09-10T02:53:38.420Z,50.908077
2022-09-10T02:54:38.395Z,50.908043
2022-09-10T02:55:38.391Z,50.908096
2022-09-10T02:56:38.404Z,50.908150
2022-09-10T02:57:38.369Z,50.908165
2022-09-10T02:58:38.473Z,50.908146
2022-09-10T02:59:38.361Z,50.908188
2022-09-10T03:00:38.348Z,50.908142
2022-09-10T03:01:38.425Z,50.908157
2022-09-10T03:02:38.332Z,50.908169
2022-09-10T03:03:38.323Z,50.908146
2022-09-10T03:04:38.327Z,50.908184
2022-09-10T03:05:38.312Z,50.908146
2022-09-10T03:06:38.384Z,50.908134
2022-09-10T03:07:38.293Z,50.908073
2022-09-10T03:08:38.286Z,50.908062
2022-09-10T03:09:38.283Z,50.908142
2022-09-10T03:10:38.267Z,50.908123
2022-09-10T03:11:38.291Z,50.908127
2022-09-10T03:12:38.292Z,50.908108
2022-09-10T03:13:38.251Z,50.908146
2022-09-10T03:14:38.241Z,50.908138
2022-09-10T03:15:38.243Z,50.908138
2022-09-10T03:16:38.311Z,50.908161
2022-09-10T03:17:38.216Z,50.908165
2022-09-10T03:18:38.358Z,50.908173
2022-09-10T03:19:38.201Z,50.908138
2022-09-10T03:20:38.199Z,50.908161
2022-09-10T03:21:38.215Z,50.908150
2022-09-10T03:22:38.175Z,50.908192
2022-09-10T03:23:38.171Z,50.908104
2022-09-10T03:24:38.157Z,50.908119
2022-09-10T03:25:38.151Z,50.908112
2022-09-10T03:26:38.163Z,50.908096
2022-09-10T03:27:38.148Z,50.908115
2022-09-10T03:28:38.150Z,50.908092
2022-09-10T03:29:38.117Z,50.908047
2022-09-10T03:30:38.114Z,50.907978
2022-09-10T03:31:38.156Z,50.908001
2022-09-10T03:32:38.097Z,50.908051
2022-09-10T03:33:38.086Z,50.907848
2022-09-10T03:34:38.066Z,50.908119
2022-09-10T03:35:39.094Z,50.908020
2022-09-10T03:36:38.053Z,50.908020
2022-09-10T03:37:38.046Z,50.908020
2022-09-10T03:38:38.041Z,50.908020
2022-09-10T03:39:38.068Z,50.908146
2022-09-10T03:40:38.074Z,50.908253
2022-09-10T03:41:38.018Z,50.908192
2022-09-10T03:42:38.012Z,50.908230
2022-09-10T03:43:38.008Z,50.908226
2022-09-10T03:44:37.993Z,50.908226
2022-09-10T03:45:38.152Z,50.908169
2022-09-10T03:46:37.976Z,50.908207
2022-09-10T03:47:37.970Z,50.908287
2022-09-10T03:48:38.097Z,50.908337
2022-09-10T03:49:37.952Z,50.908287
2022-09-10T03:50:37.968Z,50.908241
2022-09-10T03:51:37.935Z,50.908051
2022-09-10T03:52:37.932Z,50.908188
2022-09-10T03:53:37.914Z,50.908073
2022-09-10T03:54:37.912Z,50.908264
2022-09-10T03:55:37.929Z,50.908157
2022-09-10T03:56:37.892Z,50.908192
2022-09-10T03:57:37.888Z,50.908249
2022-09-10T03:58:37.884Z,50.908253
2022-09-10T03:59:37.876Z,50.908230
2022-09-10T04:00:37.894Z,50.908279
2022-09-10T04:01:37.853Z,50.908237
2022-09-10T04:02:37.858Z,50.908272
2022-09-10T04:03:37.840Z,50.908154
2022-09-10T04:04:37.828Z,50.908169
2022-09-10T04:05:37.852Z,50.908195
2022-09-10T04:06:37.818Z,50.908203
2022-09-10T04:07:37.807Z,50.908257
2022-09-10T04:08:37.803Z,50.908260
2022-09-10T04:09:37.794Z,50.908199
2022-09-10T04:10:37.823Z,50.908234
2022-09-10T04:11:37.784Z,50.908207
2022-09-10T04:12:37.782Z,50.908207
2022-09-10T04:13:37.771Z,50.908199
2022-09-10T04:14:37.758Z,50.908203
2022-09-10T04:15:37.774Z,50.908173
2022-09-10T04:16:37.797Z,50.908222
2022-09-10T04:17:37.737Z,50.908211
2022-09-10T04:18:37.726Z,50.908241
2022-09-10T04:19:37.721Z,50.908237
2022-09-10T04:20:37.739Z,50.908192
2022-09-10T04:21:37.706Z,50.908207
2022-09-10T04:22:37.723Z,50.908180
2022-09-10T04:23:37.694Z,50.908173
2022-09-10T04:24:37.679Z,50.908176
2022-09-10T04:25:38.704Z,50.908165
2022-09-10T04:26:37.669Z,50.908180
2022-09-10T04:27:37.655Z,50.908195
2022-09-10T04:28:37.645Z,50.908150
2022-09-10T04:29:37.642Z,50.908150
2022-09-10T04:30:37.632Z,50.908226
2022-09-10T04:31:37.699Z,50.908226
2022-09-10T04:32:37.613Z,50.908195
2022-09-10T04:33:37.606Z,50.908184
2022-09-10T04:34:37.601Z,50.908276
2022-09-10T04:35:37.622Z,50.908169
2022-09-10T04:36:37.585Z,50.908222
2022-09-10T04:37:37.584Z,50.908230
2022-09-10T04:38:37.657Z,50.908096
2022-09-10T04:39:37.603Z,50.908234
2022-09-10T04:40:37.587Z,50.908398
2022-09-10T04:41:37.553Z,50.908207
2022-09-10T04:42:37.556Z,50.908211
2022-09-10T04:43:37.538Z,50.908199
2022-09-10T04:44:37.528Z,50.908218
2022-09-10T04:45:37.572Z,50.908161
2022-09-10T04:46:37.524Z,50.908241
2022-09-10T04:47:37.511Z,50.908184
2022-09-10T04:48:37.524Z,50.908131
2022-09-10T04:49:37.487Z,50.908134
2022-09-10T04:50:37.508Z,50.908207
2022-09-10T04:51:37.473Z,50.908142
2022-09-10T04:52:37.473Z,50.908131
2022-09-10T04:53:37.460Z,50.908195
2022-09-10T04:54:37.475Z,50.908161
2022-09-10T04:55:37.465Z,50.908157
2022-09-10T04:56:37.433Z,50.908146
2022-09-10T04:57:37.418Z,50.908127
2022-09-10T04:58:39.350Z,50.908134
2022-09-10T04:59:38.412Z,50.908142
2022-09-10T05:00:37.438Z,50.908176
2022-09-10T05:01:37.396Z,50.908150
2022-09-10T05:02:37.386Z,50.908127
2022-09-10T05:03:38.382Z,50.908127
2022-09-10T05:04:37.396Z,50.908092
2022-09-10T05:05:37.397Z,50.908119
2022-09-10T05:06:37.357Z,50.908096
2022-09-10T05:07:37.352Z,50.908100
2022-09-10T05:08:37.406Z,50.908115
2022-09-10T05:09:37.341Z,50.908134
2022-09-10T05:10:37.329Z,50.908131
2022-09-10T05:11:37.344Z,50.908119
2022-09-10T05:12:37.312Z,50.908119
2022-09-10T05:13:37.315Z,50.908100
2022-09-10T05:14:37.299Z,50.908085
2022-09-10T05:15:37.317Z,50.908127
2022-09-10T05:16:37.370Z,50.908150
2022-09-10T05:17:37.273Z,50.908134
2022-09-10T05:18:37.320Z,50.908077
2022-09-10T05:19:37.258Z,50.908123
2022-09-10T05:20:37.270Z,50.908112
2022-09-10T05:21:37.250Z,50.908119
2022-09-10T05:22:40.512Z,50.908062
2022-09-10T05:23:38.220Z,50.908104
2022-09-10T05:24:37.253Z,50.908104
2022-09-10T05:25:37.227Z,50.908100
2022-09-10T05:26:37.202Z,50.908108
2022-09-10T05:27:37.189Z,50.908089
2022-09-10T05:28:37.236Z,50.908127
2022-09-10T05:29:37.175Z,50.908142
2022-09-10T05:30:37.193Z,50.908119
2022-09-10T05:31:37.197Z,50.908104
2022-09-10T05:32:37.153Z,50.908138
2022-09-10T05:33:37.142Z,50.908024
2022-09-10T05:34:37.138Z,50.907982
2022-09-10T05:35:37.161Z,50.908020
2022-09-10T05:36:37.117Z,50.908100
2022-09-10T05:37:37.121Z,50.908081
2022-09-10T05:38:39.984Z,50.908058
2022-09-10T05:39:38.107Z,50.908073
2022-09-10T05:40:37.156Z,50.907990
2022-09-10T05:41:37.091Z,50.907990
2022-09-10T05:42:37.078Z,50.908009
2022-09-10T05:43:37.067Z,50.908035
2022-09-10T05:44:37.057Z,50.908066
2022-09-10T05:45:37.097Z,50.908058
2022-09-10T05:46:37.044Z,50.908031
2022-09-10T05:47:37.036Z,50.908005
2022-09-10T05:48:41.386Z,50.908012
2022-09-10T05:49:38.018Z,50.908108
2022-09-10T05:50:37.032Z,50.908089
2022-09-10T05:51:37.003Z,50.908024
2022-09-10T05:52:36.997Z,50.908031
2022-09-10T05:53:36.986Z,50.908001
2022-09-10T05:54:36.977Z,50.907967
2022-09-10T05:55:37.000Z,50.907978
2022-09-10T05:56:36.959Z,50.907993
2022-09-10T05:57:36.959Z,50.907982
2022-09-10T05:58:36.964Z,50.907993
2022-09-10T05:59:36.936Z,50.908054
2022-09-10T06:00:36.960Z,50.908039
2022-09-10T06:01:36.928Z,50.908024
2022-09-10T06:02:37.081Z,50.908058
2022-09-10T06:03:36.916Z,50.908085
2022-09-10T06:04:36.906Z,50.908039
2022-09-10T06:05:36.916Z,50.908001
2022-09-10T06:06:36.881Z,50.907990
2022-09-10T06:07:36.923Z,50.908081
2022-09-10T06:08:37.011Z,50.908264
2022-09-10T06:09:36.862Z,50.908226
2022-09-10T06:10:36.876Z,50.908092
2022-09-10T06:11:36.846Z,50.908104
2022-09-10T06:12:36.838Z,50.908161
2022-09-10T06:13:36.829Z,50.908096
2022-09-10T06:14:36.818Z,50.908058
2022-09-10T06:15:36.838Z,50.908134
2022-09-10T06:16:36.854Z,50.908089
2022-09-10T06:17:36.796Z,50.907986
2022-09-10T06:18:36.827Z,50.908005
2022-09-10T06:19:36.776Z,50.908234
2022-09-10T06:20:36.794Z,50.908215
2022-09-10T06:21:36.767Z,50.908352
2022-09-10T06:22:36.758Z,50.908424
2022-09-10T06:23:36.740Z,50.908447
2022-09-10T06:24:36.737Z,50.908539
2022-09-10T06:25:36.758Z,50.908295
2022-09-10T06:26:36.723Z,50.908180
2022-09-10T06:27:36.714Z,50.908131
2022-09-10T06:28:36.824Z,50.908100
2022-09-10T06:29:36.715Z,50.908134
2022-09-10T06:30:36.755Z,50.908138
2022-09-10T06:31:36.678Z,50.908169
2022-09-10T06:32:36.677Z,50.908142
2022-09-10T06:33:36.670Z,50.908115
2022-09-10T06:34:36.663Z,50.908104
2022-09-10T06:35:36.677Z,50.908127
2022-09-10T06:36:36.644Z,50.908112
2022-09-10T06:37:36.637Z,50.908119
2022-09-10T06:38:36.631Z,50.908123
2022-09-10T06:39:36.647Z,50.908085
2022-09-10T06:40:36.652Z,50.908115
2022-09-10T06:41:36.607Z,50.908157
2022-09-10T06:42:36.608Z,50.908085
2022-09-10T06:43:36.684Z,50.908325
2022-09-10T06:44:36.588Z,50.908119
2022-09-10T06:45:36.632Z,50.908451
2022-09-10T06:47:25.794Z,50.908264
2022-09-10T06:48:19.134Z,50.908077
2022-09-10T06:48:49.604Z,50.908134
2022-09-10T06:49:38.541Z,50.908054
2022-09-10T06:50:36.558Z,50.908176
2022-09-10T06:51:36.535Z,50.908043
2022-09-10T06:52:36.522Z,50.908119
2022-09-10T06:53:36.514Z,50.908081
2022-09-10T06:54:36.508Z,50.908096
2022-09-10T06:55:36.527Z,50.908176
2022-09-10T06:56:36.488Z,50.908054
2022-09-10T06:57:36.476Z,50.907921
2022-09-10T06:58:36.506Z,50.908028
2022-09-10T06:59:36.461Z,50.908119
2022-09-10T07:00:36.479Z,50.908180
2022-09-10T07:01:36.476Z,50.908165
2022-09-10T07:02:36.437Z,50.908138
2022-09-10T07:03:36.430Z,50.908108
2022-09-10T07:04:36.419Z,50.908199
2022-09-10T07:05:36.441Z,50.908104
2022-09-10T07:06:36.414Z,50.908096
2022-09-10T07:07:36.397Z,50.908089
2022-09-10T07:08:36.443Z,50.908054
2022-09-10T07:09:36.380Z,50.908089
2022-09-10T07:10:36.394Z,50.908157
2022-09-10T07:11:41.222Z,50.908092
2022-09-10T07:12:38.351Z,50.908089
2022-09-10T07:13:36.347Z,50.908123
2022-09-10T07:14:36.338Z,50.908070
2022-09-10T07:15:36.411Z,50.908371
2022-09-10T07:16:36.319Z,50.908146
2022-09-10T07:17:36.313Z,50.908112
2022-09-10T07:18:36.363Z,50.908119
2022-09-10T07:19:36.309Z,50.908127
2022-09-10T07:20:36.317Z,50.908054
2022-09-10T07:21:36.311Z,50.908123
2022-09-10T07:22:36.273Z,50.908104
2022-09-10T07:23:36.266Z,50.908043
2022-09-10T07:24:36.258Z,50.908096
2022-09-10T07:25:36.278Z,50.908131
2022-09-10T07:26:36.256Z,50.908150
2022-09-10T07:27:36.232Z,50.907879
2022-09-10T07:28:36.333Z,50.908100
2022-09-10T07:29:36.220Z,50.908112
2022-09-10T07:30:36.250Z,50.908108
2022-09-10T07:31:36.244Z,50.908100
2022-09-10T07:32:36.193Z,50.908150
2022-09-10T07:33:36.186Z,50.908138
2022-09-10T07:34:36.179Z,50.908123
2022-09-10T07:35:36.196Z,50.908077
2022-09-10T07:36:36.166Z,50.908134
2022-09-10T07:37:36.163Z,50.908138
2022-09-10T07:38:36.167Z,50.908085
2022-09-10T07:39:36.202Z,50.908173
2022-09-10T07:40:36.162Z,50.908131
2022-09-10T07:41:36.129Z,50.908154
2022-09-10T07:42:36.121Z,50.908123
2022-09-10T07:43:36.111Z,50.908081
2022-09-10T07:44:36.100Z,50.908077
2022-09-10T07:45:36.152Z,50.908112
2022-09-10T07:46:36.090Z,50.908104
2022-09-10T07:47:36.080Z,50.908127
2022-09-10T07:48:36.199Z,50.908134
2022-09-10T07:49:36.066Z,50.908127
2022-09-10T07:50:36.083Z,50.908115
2022-09-10T07:51:36.057Z,50.908115
2022-09-10T07:52:36.039Z,50.908161
2022-09-10T07:53:36.030Z,50.908142
2022-09-10T07:54:36.029Z,50.908146
2022-09-10T07:55:37.043Z,50.908127
2022-09-10T07:56:36.028Z,50.908146
2022-09-10T07:57:35.998Z,50.908154
2022-09-10T07:58:36.211Z,50.908039
2022-09-10T07:59:35.981Z,50.908115
2022-09-10T08:00:36.008Z,50.908150
2022-09-10T08:01:35.977Z,50.908180
2022-09-10T08:02:36.010Z,50.908115
2022-09-10T08:03:35.953Z,50.908123
2022-09-10T08:04:37.144Z,50.908039
2022-09-10T08:05:36.963Z,50.908085
2022-09-10T08:06:35.929Z,50.908096
2022-09-10T08:07:35.911Z,50.908096
2022-09-10T08:08:36.913Z,50.908115
2022-09-10T08:09:35.927Z,50.908142
2022-09-10T08:10:35.926Z,50.908142
2022-09-10T08:11:35.897Z,50.908115
2022-09-10T08:12:35.922Z,50.908131
2022-09-10T08:13:35.875Z,50.908119
2022-09-10T08:14:35.856Z,50.908096
2022-09-10T08:15:36.902Z,50.908100
2022-09-10T08:16:35.851Z,50.908089
2022-09-10T08:17:35.845Z,50.908127
2022-09-10T08:18:35.876Z,50.908146
2022-09-10T08:19:35.826Z,50.908157
2022-09-10T08:20:35.841Z,50.908089
2022-09-10T08:21:35.807Z,50.908085
2022-09-10T08:22:35.800Z,50.908092
2022-09-10T08:23:35.802Z,50.908138
2022-09-10T08:24:35.786Z,50.908112
2022-09-10T08:25:35.801Z,50.908005
2022-09-10T08:26:35.765Z,50.908096
2022-09-10T08:27:35.756Z,50.908100
2022-09-10T08:28:35.802Z,50.908146
2022-09-10T08:29:35.740Z,50.908096
2022-09-10T08:30:35.768Z,50.908073
2022-09-10T08:31:35.725Z,50.908085
2022-09-10T08:32:35.722Z,50.908134
2022-09-10T08:33:35.710Z,50.908100
2022-09-10T08:34:35.700Z,50.908142
2022-09-10T08:35:35.723Z,50.908115
2022-09-10T08:36:35.685Z,50.908165
2022-09-10T08:37:35.681Z,50.908142
2022-09-10T08:38:35.719Z,50.908112
2022-09-10T08:39:35.676Z,50.908123
2022-09-10T08:40:35.656Z,50.908104
2022-09-10T08:41:35.694Z,50.908077
2022-09-10T08:42:35.642Z,50.908073
2022-09-10T08:43:35.634Z,50.908161
2022-09-10T08:44:35.622Z,50.908222
2022-09-10T08:45:35.649Z,50.908123
2022-09-10T08:46:35.636Z,50.908119
2022-09-10T08:47:35.603Z,50.908199
2022-09-10T08:48:35.678Z,50.908276
2022-09-10T08:49:35.587Z,50.908207
2022-09-10T08:50:35.580Z,50.908119
2022-09-10T08:51:35.591Z,50.908028
2022-09-10T08:52:35.562Z,50.908092
2022-09-10T08:53:35.554Z,50.908039
2022-09-10T08:54:35.549Z,50.907986
2022-09-10T08:55:35.539Z,50.908115
2022-09-10T08:56:35.568Z,50.908043
2022-09-10T08:57:36.523Z,50.908024
2022-09-10T08:58:35.517Z,50.908073
2022-09-10T08:59:35.517Z,50.908081
2022-09-10T09:00:35.493Z,50.908096
2022-09-10T09:01:35.549Z,50.908047
2022-09-10T09:02:48.892Z,50.908035
2022-09-10T09:03:37.473Z,50.908100
2022-09-10T09:04:35.473Z,50.907948
2022-09-10T09:05:35.460Z,50.907967
2022-09-10T09:06:35.471Z,50.907963
2022-09-10T09:07:35.445Z,50.907898
2022-09-10T09:08:35.438Z,50.908020
2022-09-10T09:09:35.433Z,50.908035
2022-09-10T09:10:35.447Z,50.908100
2022-09-10T09:11:36.411Z,50.908039
2022-09-10T09:12:35.409Z,50.908054
2022-09-10T09:13:35.406Z,50.908131
2022-09-10T09:14:35.398Z,50.908104
2022-09-10T09:15:35.440Z,50.908096
2022-09-10T09:16:35.379Z,50.908119
2022-09-10T09:17:35.369Z,50.908119
2022-09-10T09:18:35.364Z,50.908115
2022-09-10T09:19:35.354Z,50.908054
2022-09-10T09:20:35.370Z,50.908043
2022-09-10T09:21:35.335Z,50.908058
2022-09-10T09:22:39.796Z,50.908138
2022-09-10T09:23:36.320Z,50.908157
2022-09-10T09:24:35.318Z,50.908131
2022-09-10T09:25:35.338Z,50.908134
2022-09-10T09:26:35.298Z,50.908123
2022-09-10T09:27:35.288Z,50.908108
2022-09-10T09:28:35.281Z,50.908112
2022-09-10T09:29:35.277Z,50.908100
2022-09-10T09:30:35.297Z,50.908096
2022-09-10T09:31:35.286Z,50.908100
2022-09-10T09:32:35.247Z,50.908089
2022-09-10T09:33:35.237Z,50.908104
2022-09-10T09:34:35.229Z,50.908100
2022-09-10T09:35:35.219Z,50.908119
2022-09-10T09:36:35.236Z,50.908131
2022-09-10T09:37:35.205Z,50.908123
2022-09-10T09:38:35.300Z,50.908115
2022-09-10T09:39:35.233Z,50.908096
2022-09-10T09:40:35.187Z,50.908092
2022-09-10T09:41:35.206Z,50.908112
2022-09-10T09:42:35.170Z,50.908100
2022-09-10T09:43:35.155Z,50.908096
2022-09-10T09:44:35.151Z,50.908108
2022-09-10T09:45:35.214Z,50.908119
2022-09-10T09:46:35.165Z,50.908127
2022-09-10T09:47:35.128Z,50.908127
2022-09-10T09:48:35.122Z,50.908115
2022-09-10T09:49:35.109Z,50.908108
2022-09-10T09:50:35.107Z,50.908112
2022-09-10T09:51:35.120Z,50.908096
2022-09-10T09:52:35.090Z,50.908112
2022-09-10T09:53:35.122Z,50.908115
2022-09-10T09:55:03.254Z,50.908108
2022-09-10T09:55:37.122Z,50.908138
2022-09-10T09:56:35.100Z,50.908096
2022-09-10T09:57:35.051Z,50.908058
2022-09-10T09:58:35.046Z,50.908062
2022-09-10T09:59:35.050Z,50.908112
2022-09-10T10:00:35.032Z,50.908138
2022-09-10T10:01:35.110Z,50.908104
2022-09-10T10:02:35.075Z,50.908142
2022-09-10T10:03:35.007Z,50.908131
2022-09-10T10:04:37.047Z,50.908146
2022-09-10T10:05:35.989Z,50.908134
2022-09-10T10:06:35.007Z,50.908165
2022-09-10T10:07:34.995Z,50.908138
2022-09-10T10:08:34.973Z,50.908154
2022-09-10T10:09:34.964Z,50.908157
2022-09-10T10:10:34.951Z,50.908199
2022-09-10T10:11:34.969Z,50.908188
2022-09-10T10:12:34.937Z,50.908203
2022-09-10T10:13:34.929Z,50.908150
2022-09-10T10:14:34.926Z,50.908169
2022-09-10T10:15:34.977Z,50.908176
2022-09-10T10:16:34.929Z,50.908154
2022-09-10T10:17:34.895Z,50.908161
2022-09-10T10:18:34.890Z,50.908169
2022-09-10T10:19:34.885Z,50.908173
2022-09-10T10:20:34.877Z,50.908226
2022-09-10T10:21:34.896Z,50.908184
2022-09-10T10:22:34.891Z,50.908142
2022-09-10T10:23:34.854Z,50.908180
2022-09-10T10:24:34.844Z,50.908157
2022-09-10T10:25:35.038Z,50.908127
2022-09-10T10:26:34.910Z,50.908127
2022-09-10T10:27:34.821Z,50.908104
2022-09-10T10:28:34.818Z,50.908157
2022-09-10T10:29:34.825Z,50.908127
2022-09-10T10:30:34.798Z,50.908138
2022-09-10T10:31:34.832Z,50.908112
2022-09-10T10:32:34.781Z,50.908115
2022-09-10T10:33:34.876Z,50.908146
2022-09-10T10:34:34.806Z,50.908150
2022-09-10T10:35:34.754Z,50.908104
2022-09-10T10:36:34.777Z,50.908104
2022-09-10T10:37:34.744Z,50.908184
2022-09-10T10:38:34.756Z,50.908268
2022-09-10T10:39:34.777Z,50.908165
2022-09-10T10:40:34.713Z,50.908043
2022-09-10T10:41:34.756Z,50.908058
2022-09-10T10:42:34.760Z,50.907997
2022-09-10T10:43:34.691Z,50.907982
2022-09-10T10:44:34.691Z,50.908108
2022-09-10T10:45:34.676Z,50.908127
2022-09-10T10:46:34.721Z,50.908150
2022-09-10T10:47:34.657Z,50.908119
2022-09-10T10:48:34.652Z,50.908123
2022-09-10T10:49:34.647Z,50.908138
2022-09-10T10:50:34.639Z,50.908112
2022-09-10T10:51:34.658Z,50.907944
2022-09-10T10:52:34.638Z,50.908043
2022-09-10T10:53:34.617Z,50.908089
2022-09-10T10:54:34.617Z,50.908039
2022-09-10T10:55:34.597Z,50.908092
2022-09-10T10:56:35.046Z,50.908119
2022-09-10T10:57:34.586Z,50.908096
2022-09-10T10:58:34.574Z,50.908096
2022-09-10T10:59:34.567Z,50.908104
2022-09-10T11:00:34.572Z,50.908112
2022-09-10T11:01:34.607Z,50.908096
2022-09-10T11:02:34.575Z,50.908096
2022-09-10T11:03:34.538Z,50.908089
2022-09-10T11:04:34.566Z,50.908104
2022-09-10T11:05:34.526Z,50.908142
2022-09-10T11:06:34.544Z,50.908138
2022-09-10T11:07:34.567Z,50.908104
2022-09-10T11:08:34.523Z,50.908092
2022-09-10T11:09:34.493Z,50.908096
2022-09-10T11:10:34.491Z,50.908146
2022-09-10T11:11:34.500Z,50.908138
2022-09-10T11:12:34.472Z,50.908123
2022-09-10T11:13:34.464Z,50.908173
2022-09-10T11:14:34.459Z,50.908161
2022-09-10T11:15:34.521Z,50.908062
2022-09-10T11:16:37.396Z,50.908070
2022-09-10T11:17:35.434Z,50.908195
2022-09-10T11:18:34.426Z,50.908184
2022-09-10T11:19:34.470Z,50.908169
2022-09-10T11:20:34.416Z,50.908112
2022-09-10T11:21:34.427Z,50.908134
2022-09-10T11:22:34.397Z,50.908104
2022-09-10T11:23:34.392Z,50.908138
2022-09-10T11:24:34.381Z,50.908092